Terminal Aerodrome Forecast
Issued by NWS Portland, OR

Home | Current Version | Previous Version | Text Only | Print | Product List | Glossary On
Versions: 1 2 3 4 5 6 7 8 9 10 11 12
000
FTUS46 KPQR 162327
TAFSLE
TAF
KSLE 162327Z 1700/1724 01005KT P6SM SCT100 OVC200
     FM170300 VRB03KT P6SM BKN120 OVC200
     FM171200 16004KT P6SM BKN070 OVC100
     FM171600 VRB04KT P6SM -FZRA SCT035 OVC050
     FM171900 17008KT P6SM -RA SCT025 OVC040=

USA.gov is the U.S. government's official web portal to all federal, state and local government web resources and services.